Time;durP1;ratioP1;P1;durP2;ratioP2;P2;SDS_P1;SDS_P2;PMS_P1;PMS_P2;Temp;Humidity;BMP_temperature;BMP_pressure;BME280_temperature;BME280_humidity;BME280_pressure;Samples;Min_cycle;Max_cycle;Signal;HPM_P1;HPM_P2
2022/05/25 00:02:27;;;;;;;;;;;;;;;16.72;62.03;97641.56;5146485;27;20325;-58
2022/05/25 00:08:13;;;;;;;;;;;;;;;16.80;61.09;97641.69;5144444;27;20020;-61
2022/05/25 00:10:42;;;;;;;;;;;;;;;16.75;60.84;97635.34;5144626;27;19926;-60
2022/05/25 00:13:23;;;;;;;;;;;;;;;16.63;60.74;97638.19;5143108;27;19988;-60
2022/05/25 00:15:51;;;;;;;;;;;;;;;16.75;60.50;97645.53;5147547;27;19972;-60
2022/05/25 00:18:21;;;;;;;;;;;;;;;16.62;60.24;97652.22;5147037;27;20038;-58
2022/05/25 00:20:49;;;;;;;;;;;;;;;16.57;60.44;97650.59;5141152;27;19941;-58
2022/05/25 00:23:16;;;;;;;;;;;;;;;16.73;60.50;97648.63;5144831;27;19923;-58
2022/05/25 00:25:46;;;;;;;;;;;;;;;16.73;61.37;97653.31;5143766;27;19983;-59
2022/05/25 00:28:15;;;;;;;;;;;;;;;16.55;63.26;97650.13;5145096;27;19939;-59
2022/05/25 00:30:44;;;;;;;;;;;;;;;16.55;62.87;97652.88;5135605;27;19931;-59
2022/05/25 00:33:13;;;;;;;;;;;;;;;16.44;62.95;97641.66;5140006;27;20181;-59
2022/05/25 00:35:41;;;;;;;;;;;;;;;16.40;63.03;97646.25;5144614;27;19927;-58
2022/05/25 00:38:09;;;;;;;;;;;;;;;16.24;62.50;97649.03;5142003;27;20402;-58
2022/05/25 00:40:38;;;;;;;;;;;;;;;16.24;62.92;97653.69;5147043;27;19927;-58
2022/05/25 00:43:07;;;;;;;;;;;;;;;16.16;63.27;97644.50;5151302;27;19931;-58
2022/05/25 00:45:36;;;;;;;;;;;;;;;16.03;63.47;97643.00;5147979;27;19919;-58
2022/05/25 00:48:05;;;;;;;;;;;;;;;15.97;63.24;97645.19;5146985;27;20003;-57
2022/05/25 00:51:12;;;;;;;;;;;;;;;15.93;62.57;97649.03;5143950;27;19918;-58
2022/05/25 00:53:21;;;;;;;;;;;;;;;15.83;62.56;97644.84;5146210;27;19919;-57
2022/05/25 00:55:49;;;;;;;;;;;;;;;15.79;63.47;97654.13;5149853;27;19919;-58
2022/05/25 00:58:19;;;;;;;;;;;;;;;15.86;64.82;97660.56;5155186;27;19919;-58
2022/05/25 01:00:48;;;;;;;;;;;;;;;15.99;65.58;97658.56;5154059;27;19958;-58
2022/05/25 01:03:19;;;;;;;;;;;;;;;15.74;66.87;97646.16;5144606;27;20204;-58
2022/05/25 01:05:48;;;;;;;;;;;;;;;15.63;67.45;97654.09;5159643;27;19998;-58
2022/05/25 01:08:20;;;;;;;;;;;;;;;15.53;67.95;97660.84;5143612;27;19931;-58
2022/05/25 01:10:51;;;;;;;;;;;;;;;15.49;68.47;97653.69;5170222;27;20270;-58
2022/05/25 01:13:24;;;;;;;;;;;;;;;15.55;67.72;97660.50;5168072;27;20008;-58
2022/05/25 01:15:58;;;;;;;;;;;;;;;15.42;68.65;97659.75;5166617;27;19972;-58
2022/05/25 01:18:27;;;;;;;;;;;;;;;15.29;69.01;97658.22;5134585;27;19939;-58
2022/05/25 01:20:56;;;;;;;;;;;;;;;15.53;68.91;97657.31;5152015;27;19923;-58
2022/05/25 01:23:51;;;;;;;;;;;;;;;15.43;69.61;97664.88;5153940;27;20620;-58
2022/05/25 01:26:34;;;;;;;;;;;;;;;15.56;68.89;97668.38;5099942;27;20257;-57
2022/05/25 01:29:10;;;;;;;;;;;;;;;15.44;69.72;97657.47;5113088;27;20370;-57
2022/05/25 01:31:41;;;;;;;;;;;;;;;15.35;70.19;97654.09;5136895;27;20311;-58
2022/05/25 01:34:10;;;;;;;;;;;;;;;15.46;69.69;97658.72;5146969;27;20055;-58
2022/05/25 01:36:53;;;;;;;;;;;;;;;15.39;70.57;97663.19;5161674;27;19944;-58
2022/05/25 01:39:22;;;;;;;;;;;;;;;15.28;71.08;97667.56;5147209;27;19983;-58
2022/05/25 01:41:52;;;;;;;;;;;;;;;15.26;71.37;97669.88;5165945;27;19962;-58
2022/05/25 01:44:21;;;;;;;;;;;;;;;15.36;70.81;97661.94;5160114;27;19995;-58
2022/05/25 01:46:51;;;;;;;;;;;;;;;15.38;71.03;97654.19;5153853;27;19984;-58
2022/05/25 01:49:20;;;;;;;;;;;;;;;15.23;71.40;97660.38;5150797;27;19919;-58
2022/05/25 01:51:49;;;;;;;;;;;;;;;15.17;72.03;97661.78;5144975;27;19985;-59
2022/05/25 01:54:18;;;;;;;;;;;;;;;15.40;71.02;97651.13;5162968;27;19927;-58
2022/05/25 01:56:46;;;;;;;;;;;;;;;15.55;70.33;97639.38;5152971;27;19919;-58
2022/05/25 01:59:15;;;;;;;;;;;;;;;15.23;70.71;97643.19;5158441;27;19929;-58
2022/05/25 02:05:19;;;;;;;;;;;;;;;15.19;70.54;97645.84;5150510;27;19923;-61
2022/05/25 02:07:56;;;;;;;;;;;;;;;15.04;70.52;97657.50;5143789;27;19922;-59
2022/05/25 02:10:35;;;;;;;;;;;;;;;14.91;70.67;97664.94;5158977;27;19950;-59
2022/05/25 02:13:09;;;;;;;;;;;;;;;14.90;71.15;97666.88;5151707;27;19992;-59
2022/05/25 02:15:39;;;;;;;;;;;;;;;14.95;71.26;97663.09;5149265;27;19941;-59
2022/05/25 02:18:36;;;;;;;;;;;;;;;14.78;71.93;97666.13;5141085;27;20006;-59
2022/05/25 02:21:06;;;;;;;;;;;;;;;14.65;71.53;97668.06;5149032;27;19919;-59
2022/05/25 02:23:36;;;;;;;;;;;;;;;14.61;71.48;97667.97;5159641;27;19945;-59
2022/05/25 02:26:30;;;;;;;;;;;;;;;14.67;71.23;97672.03;5155386;27;19961;-59
2022/05/25 02:29:00;;;;;;;;;;;;;;;14.81;71.54;97670.91;5146096;27;19976;-59
2022/05/25 02:31:28;;;;;;;;;;;;;;;14.92;72.01;97672.03;5141209;27;19977;-59
2022/05/25 02:33:57;;;;;;;;;;;;;;;14.84;71.30;97675.66;5157405;27;19942;-59
2022/05/25 02:36:25;;;;;;;;;;;;;;;14.74;70.68;97676.13;5157517;27;19966;-59
2022/05/25 02:38:55;;;;;;;;;;;;;;;14.87;71.27;97681.25;5153670;27;20299;-59
2022/05/25 02:41:27;;;;;;;;;;;;;;;14.76;70.01;97674.66;5157139;27;19919;-60
2022/05/25 02:43:55;;;;;;;;;;;;;;;14.81;69.86;97671.69;5150519;27;20307;-59
2022/05/25 02:46:23;;;;;;;;;;;;;;;14.90;70.28;97682.50;5145558;27;19984;-59
2022/05/25 02:48:53;;;;;;;;;;;;;;;14.90;70.85;97687.97;5149943;27;19923;-59
2022/05/25 02:51:21;;;;;;;;;;;;;;;14.79;71.53;97679.44;5168699;27;20062;-59
2022/05/25 02:53:49;;;;;;;;;;;;;;;14.71;71.26;97680.38;5160196;27;19926;-59
2022/05/25 02:56:19;;;;;;;;;;;;;;;14.76;71.33;97690.28;5167987;27;19922;-59
2022/05/25 02:58:47;;;;;;;;;;;;;;;14.81;70.91;97690.03;5152175;27;20046;-59
2022/05/25 03:01:15;;;;;;;;;;;;;;;14.84;70.86;97683.88;5145526;27;19930;-59
2022/05/25 03:03:43;;;;;;;;;;;;;;;14.82;71.51;97680.69;5148395;27;19927;-59
2022/05/25 03:06:13;;;;;;;;;;;;;;;14.90;71.05;97685.22;5147606;27;19987;-59
2022/05/25 03:08:41;;;;;;;;;;;;;;;14.96;71.31;97692.03;5148656;27;19919;-59
2022/05/25 03:11:09;;;;;;;;;;;;;;;14.96;70.60;97694.00;5145910;27;19976;-59
2022/05/25 03:13:43;;;;;;;;;;;;;;;14.81;71.42;97687.31;5143678;27;20358;-59
2022/05/25 03:16:15;;;;;;;;;;;;;;;14.66;71.00;97695.06;5147601;27;19926;-59
2022/05/25 03:18:44;;;;;;;;;;;;;;;14.78;71.26;97688.78;5145310;27;20391;-59
2022/05/25 03:21:15;;;;;;;;;;;;;;;14.73;71.04;97696.44;5145411;27;20369;-58
2022/05/25 03:23:43;;;;;;;;;;;;;;;14.77;70.80;97695.41;5148321;27;19960;-58
2022/05/25 03:29:05;;;;;;;;;;;;;;;14.84;70.76;97703.00;5142277;27;19927;-58
2022/05/25 03:31:33;;;;;;;;;;;;;;;14.87;71.08;97702.34;5125544;27;19934;-58
2022/05/25 03:34:02;;;;;;;;;;;;;;;14.86;71.21;97707.03;5144696;27;19930;-59
2022/05/25 03:36:30;;;;;;;;;;;;;;;14.81;72.29;97703.72;5143471;27;20302;-59
2022/05/25 03:38:57;;;;;;;;;;;;;;;14.72;71.91;97705.78;5134924;27;19964;-59
2022/05/25 03:41:25;;;;;;;;;;;;;;;14.81;72.37;97703.72;5145677;27;19991;-59
2022/05/25 03:43:53;;;;;;;;;;;;;;;14.73;72.20;97713.63;5148417;27;19919;-59
2022/05/25 03:46:23;;;;;;;;;;;;;;;14.72;72.82;97716.72;5143397;27;19958;-59
2022/05/25 03:48:51;;;;;;;;;;;;;;;14.76;72.83;97717.63;5134334;27;19919;-59
2022/05/25 03:51:19;;;;;;;;;;;;;;;14.80;72.24;97713.84;5145426;27;19927;-59
2022/05/25 03:53:49;;;;;;;;;;;;;;;14.88;72.29;97725.81;5148531;27;19981;-59
2022/05/25 03:56:17;;;;;;;;;;;;;;;14.79;72.24;97728.66;5137911;27;19988;-58
2022/05/25 03:58:46;;;;;;;;;;;;;;;14.68;72.53;97733.78;5152997;27;19918;-59
2022/05/25 04:01:14;;;;;;;;;;;;;;;14.75;72.29;97729.69;5152372;27;20329;-59
2022/05/25 04:03:44;;;;;;;;;;;;;;;14.83;70.78;97737.78;5161514;27;19975;-59
2022/05/25 04:06:13;;;;;;;;;;;;;;;14.73;70.72;97743.69;5155130;27;20208;-59
2022/05/25 04:08:41;;;;;;;;;;;;;;;14.67;70.66;97748.59;5149111;27;19923;-58
2022/05/25 04:11:09;;;;;;;;;;;;;;;14.67;70.61;97756.81;5141161;27;19954;-59
2022/05/25 04:13:39;;;;;;;;;;;;;;;14.59;69.25;97752.22;5139858;27;19924;-59
2022/05/25 04:16:07;;;;;;;;;;;;;;;14.57;69.56;97751.78;5142250;27;20281;-59
2022/05/25 04:18:35;;;;;;;;;;;;;;;14.60;67.55;97745.66;5141440;27;19919;-58
2022/05/25 04:21:06;;;;;;;;;;;;;;;14.84;66.81;97749.50;5141159;27;20015;-58
2022/05/25 04:23:34;;;;;;;;;;;;;;;14.78;66.16;97748.16;5143840;27;20372;-59
2022/05/25 04:26:01;;;;;;;;;;;;;;;14.61;65.20;97741.78;5146216;27;20513;-58
2022/05/25 04:28:30;;;;;;;;;;;;;;;14.54;65.44;97755.22;5150171;27;19934;-58
2022/05/25 04:30:58;;;;;;;;;;;;;;;14.60;65.49;97756.59;5142256;27;19935;-59
2022/05/25 04:33:29;;;;;;;;;;;;;;;14.48;66.25;97764.75;5141111;27;19926;-59
2022/05/25 04:36:23;;;;;;;;;;;;;;;14.37;65.57;97758.13;5151979;27;19923;-58
2022/05/25 04:38:51;;;;;;;;;;;;;;;14.20;66.11;97764.59;5132930;27;20325;-59
2022/05/25 04:41:19;;;;;;;;;;;;;;;14.20;66.17;97761.06;5137846;27;21608;-58
2022/05/25 04:43:47;;;;;;;;;;;;;;;14.17;66.22;97762.53;5155170;27;19954;-58
2022/05/25 04:46:14;;;;;;;;;;;;;;;14.20;65.61;97766.50;5143044;27;19923;-58
2022/05/25 04:48:44;;;;;;;;;;;;;;;14.22;65.48;97773.25;5152942;27;20226;-58
2022/05/25 04:51:14;;;;;;;;;;;;;;;14.21;64.72;97773.56;5148987;27;20147;-58
2022/05/25 04:53:44;;;;;;;;;;;;;;;14.22;65.25;97770.53;5156489;27;20374;-57
2022/05/25 04:59:02;;;;;;;;;;;;;;;14.41;64.72;97780.91;5115637;27;19924;-58
2022/05/25 05:01:31;;;;;;;;;;;;;;;14.32;64.63;97775.53;5145547;27;19920;-58
2022/05/25 05:03:59;;;;;;;;;;;;;;;14.51;63.39;97785.97;5148978;27;19946;-58
2022/05/25 05:06:30;;;;;;;;;;;;;;;14.34;64.97;97784.19;5143307;27;20000;-58
2022/05/25 05:08:59;;;;;;;;;;;;;;;14.33;65.41;97785.34;5146710;27;20000;-58
2022/05/25 05:11:27;;;;;;;;;;;;;;;14.44;64.00;97782.97;5138305;27;19919;-58
2022/05/25 05:13:55;;;;;;;;;;;;;;;14.66;63.36;97779.03;5141670;27;19988;-59
2022/05/25 05:16:23;;;;;;;;;;;;;;;14.58;63.99;97788.91;5155590;27;19974;-59
2022/05/25 05:19:05;;;;;;;;;;;;;;;14.60;65.79;97802.28;5112770;27;20401;-59
2022/05/25 05:21:51;;;;;;;;;;;;;;;14.27;65.62;97805.81;5134186;27;19934;-58
2022/05/25 05:24:21;;;;;;;;;;;;;;;14.16;65.92;97810.09;5157684;27;20374;-58
2022/05/25 05:26:52;;;;;;;;;;;;;;;14.04;65.05;97813.59;5151785;27;19919;-58
2022/05/25 05:29:45;;;;;;;;;;;;;;;14.05;64.07;97817.91;5149953;27;20063;-58
2022/05/25 05:32:13;;;;;;;;;;;;;;;13.98;65.52;97825.88;5148263;27;20004;-58
2022/05/25 05:34:41;;;;;;;;;;;;;;;14.02;64.33;97817.81;5153904;27;19946;-59
2022/05/25 05:37:10;;;;;;;;;;;;;;;14.08;65.67;97825.44;5137430;27;19930;-59
2022/05/25 05:39:44;;;;;;;;;;;;;;;14.07;65.41;97829.31;5151756;27;20249;-58
2022/05/25 05:42:13;;;;;;;;;;;;;;;14.25;64.63;97840.06;5159836;27;19962;-59
2022/05/25 05:44:43;;;;;;;;;;;;;;;14.14;65.69;97839.69;5159787;27;19927;-59
2022/05/25 05:47:14;;;;;;;;;;;;;;;14.29;65.33;97846.47;5152111;27;20239;-59
2022/05/25 05:49:42;;;;;;;;;;;;;;;14.26;65.01;97847.13;5153460;27;19919;-59
2022/05/25 05:52:10;;;;;;;;;;;;;;;14.08;63.94;97860.97;5161701;27;20235;-59
2022/05/25 05:54:38;;;;;;;;;;;;;;;14.08;63.64;97869.16;5167037;27;19975;-59
2022/05/25 05:57:08;;;;;;;;;;;;;;;14.11;64.85;97871.25;5155311;27;19925;-59
2022/05/25 05:59:38;;;;;;;;;;;;;;;14.06;63.97;97871.44;5163606;27;19934;-59
2022/05/25 06:02:06;;;;;;;;;;;;;;;14.12;63.74;97880.22;5160396;27;19918;-59
2022/05/25 06:04:35;;;;;;;;;;;;;;;14.07;63.86;97894.88;5156748;27;20358;-58
2022/05/25 06:07:04;;;;;;;;;;;;;;;14.14;64.13;97895.13;5164079;27;20022;-59
2022/05/25 06:09:32;;;;;;;;;;;;;;;14.23;63.18;97894.28;5162235;27;19922;-58
2022/05/25 06:12:00;;;;;;;;;;;;;;;14.07;64.45;97899.56;5154781;27;19950;-59
2022/05/25 06:14:29;;;;;;;;;;;;;;;14.15;64.97;97918.59;5150609;27;19927;-59
2022/05/25 06:20:07;;;;;;;;;;;;;;;14.00;65.24;97919.19;5150214;27;19918;-59
2022/05/25 06:22:35;;;;;;;;;;;;;;;14.03;63.71;97917.75;5140096;27;20354;-59
2022/05/25 06:25:03;;;;;;;;;;;;;;;14.10;63.75;97921.53;5146012;27;19930;-59
2022/05/25 06:27:34;;;;;;;;;;;;;;;14.25;62.78;97919.31;5147807;27;19927;-58
2022/05/25 06:30:03;;;;;;;;;;;;;;;14.28;63.75;97927.66;5142330;27;20325;-59
2022/05/25 06:32:31;;;;;;;;;;;;;;;14.26;63.76;97934.56;5146979;27;19923;-58
2022/05/25 06:34:59;;;;;;;;;;;;;;;14.27;62.81;97930.69;5142539;27;19926;-58
2022/05/25 06:37:27;;;;;;;;;;;;;;;14.40;62.35;97930.44;5149680;27;19935;-58
2022/05/25 06:39:55;;;;;;;;;;;;;;;14.51;61.87;97932.78;5145613;27;20291;-58
2022/05/25 06:42:25;;;;;;;;;;;;;;;14.58;62.41;97936.56;5143259;27;20255;-59
2022/05/25 06:44:53;;;;;;;;;;;;;;;14.58;62.20;97939.28;5144193;27;19926;-59
2022/05/25 06:47:22;;;;;;;;;;;;;;;14.41;63.36;97940.22;5150652;27;19927;-59
2022/05/25 06:49:52;;;;;;;;;;;;;;;14.40;62.27;97946.84;5143836;27;19926;-59
2022/05/25 06:52:21;;;;;;;;;;;;;;;14.54;63.26;97932.91;5151139;27;20020;-59
2022/05/25 06:54:55;;;;;;;;;;;;;;;14.70;62.48;97940.47;5150915;27;19965;-59
2022/05/25 06:57:26;;;;;;;;;;;;;;;14.85;60.30;97950.75;5141873;27;20020;-59
2022/05/25 06:59:54;;;;;;;;;;;;;;;14.66;58.46;97949.34;5145203;27;20073;-59
2022/05/25 07:02:25;;;;;;;;;;;;;;;14.80;58.52;97943.56;5122704;27;19953;-61
2022/05/25 07:07:49;;;;;;;;;;;;;;;15.24;55.02;97949.38;5141209;27;20236;-60
2022/05/25 07:10:17;;;;;;;;;;;;;;;15.33;54.81;97951.97;5143949;27;20367;-59
2022/05/25 07:12:45;;;;;;;;;;;;;;;15.44;55.60;97950.38;5146882;27;19926;-60
2022/05/25 07:15:13;;;;;;;;;;;;;;;15.44;56.00;97958.59;5125086;27;19927;-60
2022/05/25 07:17:42;;;;;;;;;;;;;;;15.27;56.02;97951.41;5141053;27;19923;-60
2022/05/25 07:20:10;;;;;;;;;;;;;;;15.58;54.10;97955.53;5144781;27;19926;-59
2022/05/25 07:22:40;;;;;;;;;;;;;;;15.39;55.55;97961.56;5148612;27;19919;-59
2022/05/25 07:25:08;;;;;;;;;;;;;;;15.36;56.63;97965.00;5146637;27;20029;-60
2022/05/25 07:27:36;;;;;;;;;;;;;;;15.45;58.23;97971.97;5140687;27;20316;-60
2022/05/25 07:30:08;;;;;;;;;;;;;;;15.56;57.47;97968.78;5138917;27;19930;-59
2022/05/25 07:32:36;;;;;;;;;;;;;;;15.57;56.09;97973.91;5143873;27;19949;-59
2022/05/25 07:35:06;;;;;;;;;;;;;;;15.76;55.86;97978.03;5143732;27;19975;-60
2022/05/25 07:37:38;;;;;;;;;;;;;;;15.69;55.74;97978.59;5143421;27;19931;-60
2022/05/25 07:40:07;;;;;;;;;;;;;;;15.50;55.41;97976.41;5150182;27;20354;-59
2022/05/25 07:42:35;;;;;;;;;;;;;;;15.50;55.91;97981.06;5153451;27;19930;-60
2022/05/25 07:45:04;;;;;;;;;;;;;;;15.41;54.07;97983.94;5144290;27;20026;-60
2022/05/25 07:47:32;;;;;;;;;;;;;;;15.47;54.51;97988.03;5148770;27;19942;-60
2022/05/25 07:50:00;;;;;;;;;;;;;;;15.63;54.99;97989.00;5149060;27;19924;-60
2022/05/25 07:52:31;;;;;;;;;;;;;;;15.89;54.73;97988.63;5137776;27;19923;-60
2022/05/25 07:54:59;;;;;;;;;;;;;;;16.19;53.55;97980.94;5133736;27;20309;-60
2022/05/25 07:57:27;;;;;;;;;;;;;;;16.37;51.98;97984.22;5137516;27;19938;-60
2022/05/25 07:59:55;;;;;;;;;;;;;;;16.52;52.77;97985.41;5133533;27;20007;-60
2022/05/25 08:07:58;;;;;;;;;;;;;;;16.62;47.00;97987.66;5142353;27;20026;-60
2022/05/25 08:10:26;;;;;;;;;;;;;;;16.80;46.67;97993.66;5119418;27;19923;-60
2022/05/25 08:12:55;;;;;;;;;;;;;;;16.79;48.43;97997.56;5143312;27;19927;-60
2022/05/25 08:15:23;;;;;;;;;;;;;;;17.00;49.05;97997.34;5138414;27;19919;-58
2022/05/25 08:17:51;;;;;;;;;;;;;;;17.15;48.38;97996.59;5146409;27;21707;-58
2022/05/25 08:20:19;;;;;;;;;;;;;;;17.51;46.77;97991.97;5144373;27;19972;-58
2022/05/25 08:22:47;;;;;;;;;;;;;;;17.33;47.57;97988.00;5125096;27;19920;-58
2022/05/25 08:25:17;;;;;;;;;;;;;;;17.30;47.52;97984.00;5140898;27;20323;-58
2022/05/25 08:27:45;;;;;;;;;;;;;;;17.33;49.07;97990.75;5136787;27;19949;-58
2022/05/25 08:30:16;;;;;;;;;;;;;;;17.69;48.02;97985.00;5132832;27;19934;-58
2022/05/25 08:32:44;;;;;;;;;;;;;;;17.60;47.08;97991.81;5138893;27;20251;-58
2022/05/25 08:35:13;;;;;;;;;;;;;;;17.68;46.35;97988.88;5146821;27;20436;-58
2022/05/25 08:37:42;;;;;;;;;;;;;;;17.94;46.10;97985.59;5126007;27;20238;-58
2022/05/25 08:40:11;;;;;;;;;;;;;;;17.92;46.62;97993.41;5139261;27;19923;-58
2022/05/25 08:42:42;;;;;;;;;;;;;;;18.15;46.52;97990.75;5139060;27;20326;-58
2022/05/25 08:45:10;;;;;;;;;;;;;;;18.32;45.09;97989.56;5141563;27;19951;-58
2022/05/25 08:47:39;;;;;;;;;;;;;;;18.36;45.78;97989.63;5138145;27;20355;-58
2022/05/25 08:50:07;;;;;;;;;;;;;;;18.44;45.73;97996.91;5120314;27;19926;-58
2022/05/25 08:52:36;;;;;;;;;;;;;;;18.61;44.62;98001.97;5136726;27;20386;-58
2022/05/25 08:55:06;;;;;;;;;;;;;;;18.49;43.18;97991.13;5145198;27;19927;-58
2022/05/25 08:57:59;;;;;;;;;;;;;;;18.37;44.18;97989.28;5146184;27;19923;-58
2022/05/25 09:00:27;;;;;;;;;;;;;;;18.30;44.46;97989.91;5132025;27;20538;-58
2022/05/25 09:02:57;;;;;;;;;;;;;;;18.38;43.79;97988.13;5161911;27;19919;-58
2022/05/25 09:05:26;;;;;;;;;;;;;;;18.35;42.14;97983.34;5151324;27;20030;-58
2022/05/25 09:07:57;;;;;;;;;;;;;;;17.93;43.73;97984.00;5149912;27;19918;-58
2022/05/25 09:10:25;;;;;;;;;;;;;;;17.72;43.70;97984.28;5149954;27;20066;-58
2022/05/25 09:12:54;;;;;;;;;;;;;;;17.61;44.25;97996.16;5152814;27;19923;-58
2022/05/25 09:15:23;;;;;;;;;;;;;;;17.62;44.60;97997.75;5144890;27;19919;-58
2022/05/25 09:17:52;;;;;;;;;;;;;;;17.87;47.74;97995.63;5146845;27;19923;-58
2022/05/25 09:20:22;;;;;;;;;;;;;;;17.80;46.14;97991.56;5145015;27;20006;-58
2022/05/25 09:22:51;;;;;;;;;;;;;;;17.88;45.14;97997.22;5143872;27;19926;-58
2022/05/25 09:25:21;;;;;;;;;;;;;;;18.06;45.57;97995.69;5149440;27;19960;-60
2022/05/25 09:27:53;;;;;;;;;;;;;;;18.00;45.61;98005.34;5151182;27;19943;-60
2022/05/25 09:30:21;;;;;;;;;;;;;;;17.93;44.16;98005.97;5142229;27;20006;-60
2022/05/25 09:32:52;;;;;;;;;;;;;;;17.69;44.60;98006.19;5147695;27;19919;-60
2022/05/25 09:35:21;;;;;;;;;;;;;;;17.32;44.16;98011.13;5127229;27;19923;-60
2022/05/25 09:37:50;;;;;;;;;;;;;;;17.34;45.24;98006.88;5155260;27;19918;-58
2022/05/25 09:40:22;;;;;;;;;;;;;;;17.35;44.70;97996.69;5142376;27;19919;-58
2022/05/25 09:42:57;;;;;;;;;;;;;;;17.42;45.13;98007.88;5154481;27;20104;-60
2022/05/25 09:45:26;;;;;;;;;;;;;;;17.53;44.97;98011.66;5145118;27;19966;-60
2022/05/25 09:47:55;;;;;;;;;;;;;;;17.91;43.54;98010.25;5142338;27;20131;-60
2022/05/25 09:50:32;;;;;;;;;;;;;;;17.74;43.06;98006.72;5159301;27;19923;-60
2022/05/25 09:53:01;;;;;;;;;;;;;;;17.62;43.04;98004.03;5150727;27;20053;-58
2022/05/25 09:55:30;;;;;;;;;;;;;;;17.79;44.44;98000.97;5145810;27;19934;-58
2022/05/25 09:58:04;;;;;;;;;;;;;;;17.93;43.54;98005.19;5153740;27;20317;-58
2022/05/25 10:00:39;;;;;;;;;;;;;;;17.89;41.84;98004.31;5144247;27;20343;-60
2022/05/25 10:03:09;;;;;;;;;;;;;;;17.87;42.68;97998.38;5134133;27;19994;-57
2022/05/25 10:05:49;;;;;;;;;;;;;;;18.12;42.13;97997.00;5141146;27;19943;-57
2022/05/25 10:08:21;;;;;;;;;;;;;;;18.35;41.29;98004.56;5152245;27;20014;-57
2022/05/25 10:10:52;;;;;;;;;;;;;;;18.38;41.00;98009.34;5151644;27;19923;-57
2022/05/25 10:13:24;;;;;;;;;;;;;;;18.10;41.53;98009.50;5139212;27;19923;-57
2022/05/25 10:15:52;;;;;;;;;;;;;;;18.50;41.07;98000.94;5149770;27;20023;-57
2022/05/25 10:18:35;;;;;;;;;;;;;;;18.65;40.54;98011.09;5145692;27;19958;-57
2022/05/25 10:21:05;;;;;;;;;;;;;;;18.74;40.35;98006.19;5152677;27;19927;-57
2022/05/25 10:23:33;;;;;;;;;;;;;;;18.28;40.38;98007.97;5147858;27;19930;-57
2022/05/25 10:26:08;;;;;;;;;;;;;;;18.42;41.04;98002.75;5150858;27;19975;-57
2022/05/25 10:28:36;;;;;;;;;;;;;;;18.22;41.39;98009.41;5157918;27;20198;-57
2022/05/25 10:37:00;;;;;;;;;;;;;;;18.24;41.32;98007.88;5159776;27;19971;-57
2022/05/25 10:39:33;;;;;;;;;;;;;;;18.30;41.89;98000.94;5159788;27;19937;-57
2022/05/25 10:42:02;;;;;;;;;;;;;;;18.07;40.92;98000.03;5157346;27;19919;-57
2022/05/25 10:44:32;;;;;;;;;;;;;;;18.10;41.63;98004.00;5155839;27;20022;-58
2022/05/25 10:47:00;;;;;;;;;;;;;;;18.03;40.65;97999.13;5156157;27;20025;-59
2022/05/25 10:49:30;;;;;;;;;;;;;;;18.10;41.30;98001.25;5157287;27;19926;-59
2022/05/25 10:51:59;;;;;;;;;;;;;;;18.13;40.97;98006.84;5145650;27;19923;-58
2022/05/25 10:54:50;;;;;;;;;;;;;;;17.94;41.45;97999.31;5159596;27;19968;-57
2022/05/25 10:57:36;;;;;;;;;;;;;;;18.14;40.28;98005.69;5129823;27;20014;-58
2022/05/25 11:00:06;;;;;;;;;;;;;;;18.41;40.06;98003.09;5091850;27;20312;-59
2022/05/25 11:02:43;;;;;;;;;;;;;;;18.14;40.41;98008.44;5135930;27;19923;-58
2022/05/25 11:05:15;;;;;;;;;;;;;;;18.09;41.05;98003.19;5139034;27;19919;-57
2022/05/25 11:07:43;;;;;;;;;;;;;;;18.19;41.41;98002.66;5144780;27;19927;-57
2022/05/25 11:10:19;;;;;;;;;;;;;;;18.27;40.79;98006.38;5128756;27;20060;-57
2022/05/25 11:12:50;;;;;;;;;;;;;;;18.23;40.53;98006.28;5143984;27;19923;-57
2022/05/25 11:15:20;;;;;;;;;;;;;;;18.44;40.27;98016.94;5132462;27;19949;-58
2022/05/25 11:17:52;;;;;;;;;;;;;;;18.38;39.65;98012.09;5135539;27;19919;-57
2022/05/25 11:20:26;;;;;;;;;;;;;;;18.45;38.78;98010.28;5137679;27;19919;-59
2022/05/25 11:23:06;;;;;;;;;;;;;;;18.53;41.40;98012.00;5125179;27;19919;-58
2022/05/25 11:25:37;;;;;;;;;;;;;;;18.67;40.38;98006.03;5129792;27;19923;-58
2022/05/25 11:28:20;;;;;;;;;;;;;;;18.62;39.80;98009.06;5136802;27;19926;-59
2022/05/25 11:30:51;;;;;;;;;;;;;;;18.45;37.69;98009.50;5117884;27;19923;-58
2022/05/25 11:33:24;;;;;;;;;;;;;;;18.52;39.71;98009.63;5134256;27;19942;-58
2022/05/25 11:36:27;;;;;;;;;;;;;;;18.55;40.03;98009.72;5128953;27;19942;-58
2022/05/25 11:39:20;;;;;;;;;;;;;;;18.54;39.39;98016.38;5080880;27;20046;-59
2022/05/25 11:41:52;;;;;;;;;;;;;;;18.54;39.25;98008.13;5118909;27;19954;-58
2022/05/25 11:44:37;;;;;;;;;;;;;;;18.49;39.96;98004.88;5112938;27;19927;-58
2022/05/25 11:47:08;;;;;;;;;;;;;;;18.51;39.82;97997.03;5106675;27;19946;-58
2022/05/25 11:49:46;;;;;;;;;;;;;;;18.56;40.42;98000.31;5115703;27;19927;-58
2022/05/25 11:52:23;;;;;;;;;;;;;;;18.51;40.13;98005.28;5114306;27;19920;-58
2022/05/25 11:54:59;;;;;;;;;;;;;;;18.53;40.17;97994.72;5116228;27;19941;-57
2022/05/25 11:57:29;;;;;;;;;;;;;;;18.63;39.65;97996.09;5117955;27;19931;-58
2022/05/25 12:00:04;;;;;;;;;;;;;;;18.87;39.17;98003.31;5127701;27;19919;-59
2022/05/25 12:02:50;;;;;;;;;;;;;;;18.58;39.22;98006.22;5134804;27;19946;-58
2022/05/25 12:05:22;;;;;;;;;;;;;;;18.50;39.57;98004.50;5123800;27;19941;-58
2022/05/25 12:08:04;;;;;;;;;;;;;;;18.54;39.16;97996.31;5119321;27;19931;-58
2022/05/25 12:10:34;;;;;;;;;;;;;;;18.70;39.22;97994.34;5129260;27;19919;-58
2022/05/25 12:13:04;;;;;;;;;;;;;;;19.05;39.25;98005.22;5114002;27;20519;-58
2022/05/25 12:15:34;;;;;;;;;;;;;;;19.40;38.82;97998.78;5119969;27;19924;-58
2022/05/25 12:18:08;;;;;;;;;;;;;;;19.62;40.27;97984.22;5132442;27;19923;-57
2022/05/25 12:21:01;;;;;;;;;;;;;;;19.87;38.15;97992.88;5123861;27;20027;-58
2022/05/25 12:23:41;;;;;;;;;;;;;;;20.03;36.53;97994.69;5124006;27;19919;-58
2022/05/25 12:26:14;;;;;;;;;;;;;;;20.01;36.63;97997.00;5129526;27;20349;-58
2022/05/25 12:28:43;;;;;;;;;;;;;;;20.13;36.77;97996.78;5116429;27;19924;-57
2022/05/25 12:31:16;;;;;;;;;;;;;;;20.25;37.25;97993.84;5110816;27;20416;-58
2022/05/25 12:33:47;;;;;;;;;;;;;;;20.34;35.21;97988.81;5117278;27;19920;-57
2022/05/25 12:36:40;;;;;;;;;;;;;;;20.41;36.25;97985.38;5111734;27;19924;-57
2022/05/25 12:39:09;;;;;;;;;;;;;;;20.34;34.09;97985.25;5118664;27;19923;-57
2022/05/25 12:41:39;;;;;;;;;;;;;;;20.31;33.39;97973.03;5135379;27;20363;-57
2022/05/25 12:49:47;;;;;;;;;;;;;;;20.70;31.65;97972.75;5129331;27;20355;-57
2022/05/25 12:52:38;;;;;;;;;;;;;;;20.51;31.21;97986.72;5148681;27;20251;-57
2022/05/25 12:55:07;;;;;;;;;;;;;;;20.46;33.01;97981.50;5150412;27;19923;-59
2022/05/25 12:58:01;;;;;;;;;;;;;;;20.75;32.70;97986.22;5153572;27;20021;-58
2022/05/25 13:00:34;;;;;;;;;;;;;;;20.76;32.39;97985.03;5134560;27;19972;-58
2022/05/25 13:03:16;;;;;;;;;;;;;;;20.86;31.85;97991.84;5161783;27;19934;-59
2022/05/25 13:05:53;;;;;;;;;;;;;;;20.60;31.53;97984.44;5153789;27;19927;-59
2022/05/25 13:08:42;;;;;;;;;;;;;;;20.59;30.97;97991.13;5160341;27;20241;-59
2022/05/25 13:11:13;;;;;;;;;;;;;;;20.74;32.72;97975.53;5156466;27;19929;-59
2022/05/25 13:13:43;;;;;;;;;;;;;;;21.06;31.32;97989.72;5138535;27;19919;-58
2022/05/25 13:16:22;;;;;;;;;;;;;;;21.01;32.75;97995.56;5151264;27;19918;-58
2022/05/25 13:19:02;;;;;;;;;;;;;;;21.04;36.66;97979.03;5141511;27;19923;-56
2022/05/25 13:21:34;;;;;;;;;;;;;;;21.12;33.26;97994.50;5147889;27;19923;-56
2022/05/25 13:24:26;;;;;;;;;;;;;;;21.05;30.86;97988.91;5149863;27;19920;-59
2022/05/25 13:27:12;;;;;;;;;;;;;;;20.99;31.21;97982.16;5134418;27;20117;-59
2022/05/25 13:29:44;;;;;;;;;;;;;;;21.04;31.98;97994.78;5124930;27;19919;-57
2022/05/25 13:32:14;;;;;;;;;;;;;;;21.07;31.11;97983.81;5133771;27;19927;-59
2022/05/25 13:34:43;;;;;;;;;;;;;;;21.03;31.92;97985.72;5131362;27;19932;-58
2022/05/25 13:37:13;;;;;;;;;;;;;;;21.14;33.33;97985.84;5141821;27;20342;-56
2022/05/25 13:39:41;;;;;;;;;;;;;;;20.92;32.12;97976.53;5153037;27;20291;-58
2022/05/25 13:42:10;;;;;;;;;;;;;;;20.86;32.20;97973.31;5148529;27;19933;-59
2022/05/25 13:44:41;;;;;;;;;;;;;;;20.94;33.66;97979.72;5155911;27;19919;-57
2022/05/25 13:47:10;;;;;;;;;;;;;;;21.25;33.34;97972.91;5150314;27;20371;-57